createdAt,value
2018-06-27T00:00:14.970Z,15.22
2018-06-27T00:02:43.641Z,15.17
2018-06-27T00:05:12.216Z,15.14
2018-06-27T00:07:40.746Z,15.12
2018-06-27T00:10:09.440Z,15.05
2018-06-27T00:12:38.029Z,15.10
2018-06-27T00:15:06.677Z,15.08
2018-06-27T00:17:35.497Z,15.07
2018-06-27T00:20:04.123Z,15.06
2018-06-27T00:22:32.879Z,14.98
2018-06-27T00:25:01.315Z,15.00
2018-06-27T00:27:30.303Z,14.92
2018-06-27T00:29:58.763Z,14.91
2018-06-27T00:32:27.242Z,14.90
2018-06-27T00:34:55.808Z,14.93
2018-06-27T00:37:24.282Z,14.90
2018-06-27T00:39:52.969Z,14.89
2018-06-27T00:42:21.427Z,14.96
2018-06-27T00:44:49.879Z,14.75
2018-06-27T00:47:18.435Z,14.73
2018-06-27T00:49:46.951Z,14.73
2018-06-27T00:52:15.589Z,14.66
2018-06-27T00:54:44.476Z,14.77
2018-06-27T00:57:13.155Z,14.65
2018-06-27T00:59:41.847Z,14.68
2018-06-27T01:02:11.171Z,14.68
2018-06-27T01:04:39.823Z,14.62
2018-06-27T01:07:08.606Z,14.57
2018-06-27T01:09:37.914Z,14.55
2018-06-27T01:12:06.380Z,14.51
2018-06-27T01:14:34.986Z,14.53
2018-06-27T01:17:03.892Z,14.54
2018-06-27T01:19:32.563Z,14.40
2018-06-27T01:22:01.262Z,14.38
2018-06-27T01:24:29.763Z,14.37
2018-06-27T01:26:58.274Z,14.34
2018-06-27T01:29:27.168Z,14.31
2018-06-27T01:31:56.156Z,14.29
2018-06-27T01:34:24.560Z,14.22
2018-06-27T01:36:53.175Z,14.26
2018-06-27T01:39:21.660Z,14.25
2018-06-27T01:41:50.122Z,14.28
2018-06-27T01:44:18.644Z,14.30
2018-06-27T01:46:47.489Z,14.19
2018-06-27T01:49:15.915Z,14.17
2018-06-27T01:51:44.355Z,14.20
2018-06-27T01:54:12.746Z,14.23
2018-06-27T01:56:41.282Z,14.20
2018-06-27T01:59:09.851Z,14.29
2018-06-27T02:01:38.571Z,14.26
2018-06-27T02:04:07.248Z,14.29
2018-06-27T02:06:35.758Z,14.27
2018-06-27T02:09:05.827Z,14.21
2018-06-27T02:11:34.350Z,14.21
2018-06-27T02:14:03.269Z,14.23
2018-06-27T02:16:31.731Z,14.17
2018-06-27T02:19:00.438Z,14.27
2018-06-27T02:21:29.107Z,14.26
2018-06-27T02:23:57.771Z,14.26
2018-06-27T02:26:26.571Z,14.18
2018-06-27T02:28:54.986Z,14.13
2018-06-27T02:31:23.436Z,14.19
2018-06-27T02:33:51.933Z,14.13
2018-06-27T02:36:20.394Z,14.03
2018-06-27T02:38:49.056Z,14.10
2018-06-27T02:41:17.477Z,13.99
2018-06-27T02:43:46.189Z,13.99
2018-06-27T02:46:14.729Z,14.06
2018-06-27T02:48:43.428Z,14.07
2018-06-27T02:51:11.917Z,14.06
2018-06-27T02:53:40.603Z,14.03
2018-06-27T02:56:10.777Z,13.97
2018-06-27T02:58:39.379Z,13.89
2018-06-27T03:01:07.875Z,13.97
2018-06-27T03:03:36.282Z,13.87
2018-06-27T03:06:04.798Z,13.78
2018-06-27T03:08:33.290Z,13.75
2018-06-27T03:11:02.208Z,13.71
2018-06-27T03:13:30.684Z,13.71
2018-06-27T03:15:59.801Z,13.68
2018-06-27T03:18:28.912Z,13.68
2018-06-27T03:20:58.107Z,13.64
2018-06-27T03:23:26.623Z,13.64
2018-06-27T03:25:55.110Z,13.63
2018-06-27T03:28:23.778Z,13.67
2018-06-27T03:30:52.323Z,13.61
2018-06-27T03:33:20.853Z,13.59
2018-06-27T03:35:49.315Z,13.61
2018-06-27T03:38:17.930Z,13.58
2018-06-27T03:40:46.408Z,13.56
2018-06-27T03:43:14.843Z,13.49
2018-06-27T03:45:43.824Z,13.56
2018-06-27T03:48:12.633Z,13.54
2018-06-27T03:50:41.219Z,13.52
2018-06-27T03:53:09.814Z,13.50
2018-06-27T03:55:38.267Z,13.51
2018-06-27T03:58:06.849Z,13.60
2018-06-27T04:03:30.862Z,13.64
2018-06-27T04:05:59.554Z,13.66
2018-06-27T04:08:28.402Z,13.76
2018-06-27T04:10:57.153Z,13.88
2018-06-27T04:13:26.165Z,14.00
2018-06-27T04:15:54.584Z,14.07
2018-06-27T04:18:23.065Z,14.21
2018-06-27T04:20:51.622Z,14.55
2018-06-27T04:23:20.243Z,14.63
2018-06-27T04:25:48.916Z,14.85
2018-06-27T04:28:17.530Z,15.00
2018-06-27T04:30:46.283Z,15.16
2018-06-27T04:33:14.845Z,15.38
2018-06-27T04:35:43.430Z,15.53
2018-06-27T04:38:12.019Z,15.59
2018-06-27T04:40:40.684Z,15.63
2018-06-27T04:43:09.438Z,15.77
2018-06-27T04:45:37.906Z,15.76
2018-06-27T04:48:06.588Z,15.92
2018-06-27T04:50:35.456Z,16.13
2018-06-27T04:53:04.376Z,16.13
2018-06-27T04:55:33.478Z,16.09
2018-06-27T04:58:02.267Z,16.22
2018-06-27T05:00:31.759Z,16.41
2018-06-27T05:03:00.319Z,16.68
2018-06-27T05:05:28.824Z,16.63
2018-06-27T05:07:57.391Z,16.69
2018-06-27T05:10:26.116Z,16.79
2018-06-27T05:12:54.674Z,16.76
2018-06-27T05:15:23.478Z,16.91
2018-06-27T05:17:52.082Z,16.98
2018-06-27T05:20:20.771Z,17.10
2018-06-27T05:22:49.398Z,17.23
2018-06-27T05:25:18.284Z,17.33
2018-06-27T05:27:46.939Z,17.49
2018-06-27T05:30:15.678Z,17.48
2018-06-27T05:32:44.233Z,17.61
2018-06-27T05:35:12.849Z,17.65
2018-06-27T05:37:41.304Z,17.62
2018-06-27T05:40:10.415Z,17.62
2018-06-27T05:42:39.256Z,17.66
2018-06-27T05:45:07.827Z,17.77
2018-06-27T05:47:36.478Z,17.97
2018-06-27T05:50:05.718Z,17.71
2018-06-27T05:52:34.150Z,17.54
2018-06-27T05:55:07.658Z,17.76
2018-06-27T05:57:37.469Z,17.99
2018-06-27T06:00:07.017Z,18.16
2018-06-27T06:02:35.599Z,18.08
2018-06-27T06:05:04.975Z,18.28
2018-06-27T06:07:34.418Z,18.35
2018-06-27T06:10:03.230Z,18.70
2018-06-27T06:12:32.527Z,18.67
2018-06-27T06:15:01.155Z,18.34
2018-06-27T06:17:29.842Z,18.64
2018-06-27T06:19:58.496Z,18.42
2018-06-27T06:22:27.164Z,18.50
2018-06-27T06:24:56.461Z,18.56
2018-06-27T06:27:25.381Z,18.70
2018-06-27T06:29:54.089Z,18.81
2018-06-27T06:32:22.918Z,19.09
2018-06-27T06:34:51.602Z,19.36
2018-06-27T06:37:20.132Z,19.25
2018-06-27T06:39:49.354Z,19.37
2018-06-27T06:42:17.894Z,19.40
2018-06-27T06:44:46.961Z,19.63
2018-06-27T06:47:15.895Z,19.52
2018-06-27T06:49:44.541Z,19.57
2018-06-27T06:52:13.156Z,19.67
2018-06-27T06:54:41.712Z,19.97
2018-06-27T06:57:10.216Z,19.70
2018-06-27T06:59:38.930Z,19.48
2018-06-27T07:02:07.617Z,19.72
2018-06-27T07:04:36.630Z,19.97
2018-06-27T07:07:05.126Z,19.97
2018-06-27T07:09:33.798Z,20.10
2018-06-27T07:12:03.048Z,20.51
2018-06-27T07:14:31.798Z,20.38
2018-06-27T07:17:00.361Z,20.46
2018-06-27T07:19:28.994Z,20.40
2018-06-27T07:21:57.708Z,20.31
2018-06-27T07:24:26.962Z,20.32
2018-06-27T07:26:56.174Z,20.78
2018-06-27T07:29:24.755Z,20.92
2018-06-27T07:31:53.574Z,20.45
2018-06-27T07:34:22.127Z,21.00
2018-06-27T07:36:51.118Z,20.90
2018-06-27T07:39:20.709Z,20.61
2018-06-27T07:41:49.877Z,20.81
2018-06-27T07:44:19.512Z,20.79
2018-06-27T07:46:48.469Z,20.91
2018-06-27T07:49:17.145Z,20.93
2018-06-27T07:51:46.123Z,21.00
2018-06-27T07:54:16.748Z,20.88
2018-06-27T07:56:45.454Z,20.81
2018-06-27T07:59:14.326Z,20.97
2018-06-27T08:01:42.965Z,21.47
2018-06-27T08:04:11.511Z,21.62
2018-06-27T08:06:46.985Z,21.31
2018-06-27T08:09:15.848Z,21.71
2018-06-27T08:11:45.047Z,20.40
2018-06-27T08:14:13.796Z,21.14
2018-06-27T08:16:42.971Z,21.75
2018-06-27T08:19:11.597Z,21.45
2018-06-27T08:21:41.410Z,21.72
2018-06-27T08:24:10.559Z,21.72
2018-06-27T08:26:39.115Z,22.09
2018-06-27T08:29:08.104Z,22.10
2018-06-27T08:31:36.858Z,22.08
2018-06-27T08:34:05.726Z,22.60
2018-06-27T08:36:34.236Z,22.65
2018-06-27T08:39:04.014Z,22.47
2018-06-27T08:41:32.568Z,22.58
2018-06-27T08:44:01.161Z,21.86
2018-06-27T08:46:30.007Z,22.17
2018-06-27T08:48:58.672Z,21.92
2018-06-27T08:51:27.595Z,21.83
2018-06-27T08:53:56.240Z,22.20
2018-06-27T08:56:24.759Z,22.20
2018-06-27T08:58:53.726Z,21.89
2018-06-27T09:01:23.156Z,21.30
2018-06-27T09:06:29.602Z,21.60
2018-06-27T09:08:58.904Z,22.05
2018-06-27T09:11:34.029Z,21.96
2018-06-27T09:14:04.873Z,21.88
2018-06-27T09:16:34.479Z,22.36
2018-06-27T09:19:03.088Z,22.16
2018-06-27T09:21:31.848Z,22.90
2018-06-27T09:24:00.358Z,22.60
2018-06-27T09:26:29.282Z,22.27
2018-06-27T09:28:57.884Z,22.02
2018-06-27T09:31:33.251Z,21.64
2018-06-27T09:34:02.595Z,21.88
2018-06-27T09:36:31.644Z,22.52
2018-06-27T09:39:00.343Z,22.26
2018-06-27T09:41:33.798Z,21.75
2018-06-27T09:44:04.253Z,21.27
2018-06-27T09:46:33.384Z,21.38
2018-06-27T09:49:02.950Z,21.71
2018-06-27T09:51:31.514Z,22.94
2018-06-27T09:54:00.113Z,23.54
2018-06-27T09:56:28.728Z,23.17
2018-06-27T09:58:58.455Z,23.68
2018-06-27T10:01:28.147Z,23.82
2018-06-27T10:03:57.451Z,23.92
2018-06-27T10:06:26.274Z,23.53
2018-06-27T10:08:54.810Z,23.49
2018-06-27T10:11:23.446Z,23.51
2018-06-27T10:13:52.312Z,23.28
2018-06-27T10:16:21.315Z,23.47
2018-06-27T10:18:49.865Z,23.94
2018-06-27T10:21:18.614Z,24.04
2018-06-27T10:23:47.116Z,23.67
2018-06-27T10:26:15.991Z,23.93
2018-06-27T10:28:45.231Z,24.21
2018-06-27T10:31:13.973Z,23.44
2018-06-27T10:33:42.774Z,23.13
2018-06-27T10:36:12.540Z,23.83
2018-06-27T10:38:41.229Z,23.72
2018-06-27T10:41:10.707Z,23.13
2018-06-27T10:43:39.479Z,23.31
2018-06-27T10:46:08.540Z,23.00
2018-06-27T10:48:38.073Z,23.19
2018-06-27T10:51:13.252Z,24.83
2018-06-27T10:53:42.558Z,25.95
2018-06-27T10:56:13.252Z,26.01
2018-06-27T10:58:42.341Z,24.37
2018-06-27T11:01:11.345Z,23.90
2018-06-27T11:03:40.149Z,24.34
2018-06-27T11:06:08.846Z,24.25
2018-06-27T11:08:37.741Z,23.39
2018-06-27T11:11:06.303Z,23.08
2018-06-27T11:13:36.024Z,22.86
2018-06-27T11:16:05.355Z,22.91
2018-06-27T11:18:34.212Z,24.60
2018-06-27T11:21:02.772Z,23.76
2018-06-27T11:23:32.587Z,24.80
2018-06-27T11:26:01.547Z,24.56
2018-06-27T11:28:30.034Z,23.99
2018-06-27T11:30:58.715Z,23.99
2018-06-27T11:33:27.713Z,24.14
2018-06-27T11:35:56.404Z,27.01
2018-06-27T11:38:25.163Z,26.82
2018-06-27T11:40:54.088Z,24.96
2018-06-27T11:43:23.112Z,24.55
2018-06-27T11:45:51.823Z,25.77
2018-06-27T11:48:20.475Z,27.73
2018-06-27T11:50:49.290Z,27.34
2018-06-27T11:53:18.319Z,27.21
2018-06-27T11:55:46.847Z,28.49
2018-06-27T11:58:15.520Z,29.30
2018-06-27T12:00:45.439Z,29.15
2018-06-27T12:03:13.956Z,29.50
2018-06-27T12:05:43.755Z,27.41
2018-06-27T12:08:12.595Z,26.19
2018-06-27T12:10:42.144Z,25.80
2018-06-27T12:13:11.084Z,25.28
2018-06-27T12:15:39.988Z,27.29
2018-06-27T12:18:09.186Z,26.70
2018-06-27T12:20:37.712Z,26.18
2018-06-27T12:23:06.640Z,26.68
2018-06-27T12:25:35.318Z,26.84
2018-06-27T12:28:04.251Z,25.21
2018-06-27T12:30:33.653Z,25.10
2018-06-27T12:33:02.974Z,27.02
2018-06-27T12:35:31.852Z,28.25
2018-06-27T12:38:00.620Z,28.76
2018-06-27T12:40:29.369Z,29.23
2018-06-27T12:42:58.588Z,29.67
2018-06-27T12:45:27.424Z,29.38
2018-06-27T12:47:55.881Z,30.40
2018-06-27T12:50:24.890Z,30.40
2018-06-27T12:52:53.520Z,30.76
2018-06-27T12:55:22.435Z,30.80
2018-06-27T12:57:51.038Z,30.93
2018-06-27T13:00:19.926Z,30.89
2018-06-27T13:02:48.720Z,30.73
2018-06-27T13:05:17.577Z,30.52
2018-06-27T13:07:46.758Z,29.86
2018-06-27T13:10:15.391Z,28.16
2018-06-27T13:12:44.018Z,27.48
2018-06-27T13:15:12.837Z,28.30
2018-06-27T13:17:41.340Z,29.37
2018-06-27T13:20:10.184Z,27.40
2018-06-27T13:22:38.950Z,26.54
2018-06-27T13:25:07.658Z,25.92
2018-06-27T13:27:36.363Z,25.60
2018-06-27T13:30:06.116Z,26.29
2018-06-27T13:32:35.727Z,26.26
2018-06-27T13:35:04.813Z,26.30
2018-06-27T13:37:40.194Z,26.09
2018-06-27T13:40:09.006Z,26.96
2018-06-27T13:42:37.679Z,26.04
2018-06-27T13:45:06.719Z,25.54
2018-06-27T13:47:35.437Z,25.65
2018-06-27T13:50:04.317Z,25.86
2018-06-27T13:52:34.883Z,28.35
2018-06-27T13:55:04.108Z,28.93
2018-06-27T13:57:32.828Z,30.86
2018-06-27T14:00:01.516Z,30.09
2018-06-27T14:02:31.361Z,28.76
2018-06-27T14:05:02.053Z,29.04
2018-06-27T14:07:31.350Z,30.31
2018-06-27T14:10:00.591Z,31.41
2018-06-27T14:12:29.403Z,32.31
2018-06-27T14:14:58.550Z,27.17
2018-06-27T14:17:28.084Z,26.88
2018-06-27T14:19:56.602Z,27.30
2018-06-27T14:22:25.455Z,28.64
2018-06-27T14:24:54.268Z,27.20
2018-06-27T14:27:23.962Z,26.80
2018-06-27T14:29:52.463Z,26.29
2018-06-27T14:32:22.824Z,25.82
2018-06-27T14:34:51.940Z,26.00
2018-06-27T14:37:20.552Z,26.21
2018-06-27T14:39:50.949Z,26.21
2018-06-27T14:42:19.908Z,26.31
2018-06-27T14:44:49.029Z,26.37
2018-06-27T14:47:17.979Z,26.11
2018-06-27T14:49:47.128Z,25.86
2018-06-27T14:52:16.440Z,25.56
2018-06-27T14:54:49.342Z,25.58
2018-06-27T14:57:18.363Z,26.10
2018-06-27T14:59:48.948Z,25.75
2018-06-27T15:02:19.471Z,25.53
2018-06-27T15:04:58.344Z,25.01
2018-06-27T15:07:28.829Z,25.26
2018-06-27T15:09:57.679Z,25.51
2018-06-27T15:12:26.494Z,25.14
2018-06-27T15:14:57.078Z,25.33
2018-06-27T15:17:26.494Z,25.12
2018-06-27T15:19:55.936Z,24.65
2018-06-27T15:22:24.578Z,24.47
2018-06-27T15:24:54.581Z,24.46
2018-06-27T15:27:23.423Z,24.24
2018-06-27T15:29:53.062Z,24.23
2018-06-27T15:32:22.562Z,24.42
2018-06-27T15:34:51.883Z,24.08
2018-06-27T15:37:21.831Z,24.11
2018-06-27T15:39:50.505Z,24.39
2018-06-27T15:42:19.840Z,24.25
2018-06-27T15:44:49.180Z,24.26
2018-06-27T15:47:18.749Z,24.21
2018-06-27T15:49:47.961Z,24.19
2018-06-27T15:52:16.600Z,24.35
2018-06-27T15:54:45.831Z,24.39
2018-06-27T15:57:14.944Z,25.29
2018-06-27T15:59:49.419Z,26.39
2018-06-27T16:02:18.674Z,25.98
2018-06-27T16:04:47.899Z,26.28
2018-06-27T16:07:18.391Z,27.02
2018-06-27T16:09:47.740Z,25.13
2018-06-27T16:12:16.644Z,25.53
2018-06-27T16:14:45.397Z,25.54
2018-06-27T16:17:14.193Z,25.21
2018-06-27T16:19:42.908Z,25.38
2018-06-27T16:22:11.842Z,25.42
2018-06-27T16:24:40.454Z,25.54
2018-06-27T16:27:09.770Z,25.23
2018-06-27T16:29:38.528Z,25.34
2018-06-27T16:32:07.207Z,26.27
2018-06-27T16:34:36.018Z,26.18
2018-06-27T16:37:04.751Z,26.21
2018-06-27T16:39:33.537Z,25.54
2018-06-27T16:42:02.276Z,25.81
2018-06-27T16:44:31.223Z,25.19
2018-06-27T16:47:00.346Z,25.13
2018-06-27T16:49:29.172Z,24.81
2018-06-27T16:51:57.816Z,24.69
2018-06-27T16:54:27.228Z,24.76
2018-06-27T16:56:55.933Z,24.75
2018-06-27T16:59:24.728Z,24.58
2018-06-27T17:01:53.500Z,24.49
2018-06-27T17:04:22.096Z,24.53
2018-06-27T17:06:51.794Z,24.48
2018-06-27T17:09:20.808Z,24.53
2018-06-27T17:11:49.621Z,24.37
2018-06-27T17:14:18.771Z,24.47
2018-06-27T17:16:48.216Z,24.58
2018-06-27T17:19:17.044Z,24.63
2018-06-27T17:21:45.797Z,24.74
2018-06-27T17:24:14.707Z,24.63
2018-06-27T17:26:44.011Z,24.49
2018-06-27T17:29:13.075Z,24.22
2018-06-27T17:31:41.970Z,24.09
2018-06-27T17:34:10.936Z,23.78
2018-06-27T17:36:40.653Z,23.47
2018-06-27T17:39:10.351Z,23.56
2018-06-27T17:41:39.607Z,23.70
2018-06-27T17:44:08.677Z,23.57
2018-06-27T17:46:37.416Z,23.55
2018-06-27T17:49:06.535Z,23.49
2018-06-27T17:51:35.130Z,23.25
2018-06-27T17:54:04.640Z,23.29
2018-06-27T17:56:34.494Z,23.32
2018-06-27T17:59:03.673Z,23.22
2018-06-27T18:01:33.785Z,23.11
2018-06-27T18:04:02.634Z,23.06
2018-06-27T18:06:31.783Z,23.02
2018-06-27T18:09:00.272Z,22.88
2018-06-27T18:11:35.594Z,22.78
2018-06-27T18:14:04.872Z,22.97
2018-06-27T18:16:35.515Z,22.86
2018-06-27T18:19:04.916Z,22.70
2018-06-27T18:21:35.163Z,22.63
2018-06-27T18:24:04.051Z,22.54
2018-06-27T18:26:34.879Z,22.50
2018-06-27T18:29:03.981Z,22.56
2018-06-27T18:31:33.208Z,22.52
2018-06-27T18:34:02.864Z,22.50
2018-06-27T18:36:31.602Z,22.46
2018-06-27T18:39:00.256Z,22.38
2018-06-27T18:41:29.131Z,22.31
2018-06-27T18:43:58.830Z,22.20
2018-06-27T18:46:27.407Z,22.15
2018-06-27T18:48:57.452Z,22.08
2018-06-27T18:51:27.230Z,21.95
2018-06-27T18:53:55.902Z,21.90
2018-06-27T18:56:24.976Z,21.90
2018-06-27T18:58:53.728Z,21.79
2018-06-27T19:01:22.505Z,21.67
2018-06-27T19:03:52.275Z,21.53
2018-06-27T19:06:21.152Z,21.44
2018-06-27T19:08:52.655Z,21.32
2018-06-27T19:11:21.826Z,21.38
2018-06-27T19:13:51.708Z,21.34
2018-06-27T19:16:21.423Z,21.59
2018-06-27T19:18:50.158Z,21.50
2018-06-27T19:21:20.116Z,21.55
2018-06-27T19:23:49.405Z,21.43
2018-06-27T19:26:18.549Z,21.28
2018-06-27T19:28:50.749Z,21.16
2018-06-27T19:31:19.768Z,21.10
2018-06-27T19:33:48.661Z,20.99
2018-06-27T19:36:17.690Z,20.89
2018-06-27T19:38:47.847Z,20.78
2018-06-27T19:41:17.022Z,20.63
2018-06-27T19:43:45.844Z,20.53
2018-06-27T19:46:15.235Z,20.41
2018-06-27T19:48:45.221Z,20.30
2018-06-27T19:51:14.196Z,20.13
2018-06-27T19:53:43.427Z,20.01
2018-06-27T19:56:13.415Z,19.89
2018-06-27T19:58:43.195Z,19.91
2018-06-27T20:01:12.803Z,19.86
2018-06-27T20:03:42.927Z,19.74
2018-06-27T20:06:12.714Z,19.69
2018-06-27T20:08:42.333Z,19.56
2018-06-27T20:11:11.370Z,19.54
2018-06-27T20:13:41.243Z,19.58
2018-06-27T20:16:11.234Z,19.63
2018-06-27T20:18:39.944Z,19.63
2018-06-27T20:21:09.430Z,19.64
2018-06-27T20:23:38.699Z,19.62
2018-06-27T20:26:07.251Z,19.86
2018-06-27T20:28:35.831Z,20.03
2018-06-27T20:31:04.767Z,19.95
2018-06-27T20:33:33.672Z,19.85
2018-06-27T20:36:02.414Z,19.99
2018-06-27T20:38:31.154Z,20.04
2018-06-27T20:41:01.602Z,20.15
2018-06-27T20:43:31.673Z,20.10
2018-06-27T20:46:01.530Z,19.99
2018-06-27T20:48:31.163Z,19.97
2018-06-27T20:51:00.428Z,20.11
2018-06-27T20:53:30.474Z,20.02
2018-06-27T20:56:00.446Z,20.12
2018-06-27T20:58:35.067Z,20.00
2018-06-27T21:01:04.504Z,19.87
2018-06-27T21:03:33.929Z,19.76
2018-06-27T21:06:03.343Z,19.79
2018-06-27T21:08:32.331Z,19.80
2018-06-27T21:11:01.235Z,19.75
2018-06-27T21:13:31.245Z,19.78
2018-06-27T21:16:00.466Z,19.68
2018-06-27T21:18:30.129Z,19.57
2018-06-27T21:20:59.660Z,19.51
2018-06-27T21:23:29.684Z,19.57
2018-06-27T21:26:00.535Z,19.65
2018-06-27T21:28:30.298Z,19.52
2018-06-27T21:30:59.367Z,19.49
2018-06-27T21:33:29.415Z,19.43
2018-06-27T21:36:02.484Z,19.38
2018-06-27T21:38:31.156Z,19.36
2018-06-27T21:40:59.933Z,19.35
2018-06-27T21:43:28.795Z,19.30
2018-06-27T21:45:57.324Z,19.29
2018-06-27T21:48:25.980Z,19.22
2018-06-27T21:50:54.495Z,19.23
2018-06-27T21:53:23.373Z,19.28
2018-06-27T21:55:52.922Z,19.36
2018-06-27T21:58:22.304Z,19.24
2018-06-27T22:00:52.534Z,19.18
2018-06-27T22:03:23.353Z,19.30
2018-06-27T22:05:52.149Z,19.10
2018-06-27T22:08:30.861Z,19.13
2018-06-27T22:11:01.187Z,19.06
2018-06-27T22:13:29.721Z,18.99
2018-06-27T22:15:58.799Z,18.89
2018-06-27T22:18:27.912Z,19.00
2018-06-27T22:20:57.342Z,18.97
2018-06-27T22:23:26.832Z,18.96
2018-06-27T22:25:56.400Z,18.89
2018-06-27T22:28:24.931Z,18.85
2018-06-27T22:30:54.435Z,18.81
2018-06-27T22:33:23.283Z,18.66
2018-06-27T22:35:52.486Z,18.65
2018-06-27T22:38:21.025Z,18.75
2018-06-27T22:40:50.623Z,18.56
2018-06-27T22:43:19.821Z,18.61
2018-06-27T22:45:49.780Z,18.48
2018-06-27T22:48:18.456Z,18.43
2018-06-27T22:50:47.071Z,18.50
2018-06-27T22:53:15.633Z,18.43
2018-06-27T22:55:44.199Z,18.35
2018-06-27T22:58:13.052Z,18.36
2018-06-27T23:00:42.289Z,18.41
2018-06-27T23:03:12.933Z,18.37
2018-06-27T23:05:42.018Z,18.37
2018-06-27T23:08:10.953Z,18.48
2018-06-27T23:10:39.562Z,18.39
2018-06-27T23:13:08.118Z,18.35
2018-06-27T23:15:36.747Z,18.38
2018-06-27T23:18:05.558Z,18.50
2018-06-27T23:20:34.160Z,18.47
2018-06-27T23:23:02.725Z,18.51
2018-06-27T23:25:31.450Z,18.44
2018-06-27T23:27:59.979Z,18.45
2018-06-27T23:30:28.604Z,18.43
2018-06-27T23:32:57.110Z,18.31
2018-06-27T23:35:25.700Z,18.31
2018-06-27T23:37:54.328Z,18.23
2018-06-27T23:40:22.983Z,18.24
2018-06-27T23:42:51.607Z,18.25
2018-06-27T23:45:20.325Z,18.20
2018-06-27T23:47:49.802Z,18.11
2018-06-27T23:50:18.667Z,18.06
2018-06-27T23:52:47.292Z,18.11
2018-06-27T23:55:16.010Z,18.01
2018-06-27T23:57:44.607Z,17.97
